createdAt,value
2022-12-18T00:00:42.158Z,32.00
2022-12-18T00:03:31.364Z,32.80
2022-12-18T00:06:20.758Z,31.83
2022-12-18T00:09:09.527Z,34.90
2022-12-18T00:11:58.039Z,35.07
2022-12-18T00:14:47.920Z,31.37
2022-12-18T00:17:36.381Z,34.10
2022-12-18T00:20:26.585Z,29.90
2022-12-18T00:23:15.035Z,35.30
2022-12-18T00:26:03.904Z,34.57
2022-12-18T00:28:52.812Z,33.53
2022-12-18T00:31:43.944Z,32.00
2022-12-18T00:34:32.534Z,32.50
2022-12-18T00:37:20.966Z,31.20
2022-12-18T00:40:10.992Z,35.63
2022-12-18T00:42:58.565Z,35.33
2022-12-18T00:45:47.680Z,36.00
2022-12-18T00:48:37.552Z,36.30
2022-12-18T00:51:26.418Z,34.90
2022-12-18T00:54:14.978Z,35.60
2022-12-18T00:57:03.739Z,34.10
2022-12-18T00:59:52.218Z,36.30
2022-12-18T01:02:41.220Z,34.03
2022-12-18T01:05:31.147Z,34.90
2022-12-18T01:08:19.642Z,32.77
2022-12-18T01:11:10.339Z,32.40
2022-12-18T01:13:58.815Z,33.60
2022-12-18T01:16:47.364Z,34.23
2022-12-18T01:19:36.048Z,36.33
2022-12-18T01:22:25.954Z,36.50
2022-12-18T01:25:14.423Z,35.63
2022-12-18T01:28:02.896Z,35.57
2022-12-18T01:30:51.361Z,39.93
2022-12-18T01:33:40.048Z,37.63
2022-12-18T01:36:30.479Z,35.83
2022-12-18T01:39:20.874Z,37.63
2022-12-18T01:42:13.379Z,37.97
2022-12-18T01:45:07.969Z,37.83
2022-12-18T01:47:57.736Z,37.17
2022-12-18T01:50:46.178Z,36.03
2022-12-18T01:53:34.911Z,40.67
2022-12-18T01:56:24.981Z,36.27
2022-12-18T01:59:13.840Z,39.27
2022-12-18T02:02:02.868Z,36.90
2022-12-18T02:04:51.924Z,35.40
2022-12-18T02:07:46.942Z,37.00
2022-12-18T02:10:41.359Z,34.60
2022-12-18T02:13:37.347Z,34.57
2022-12-18T02:16:29.831Z,36.33
2022-12-18T02:19:30.858Z,36.07
2022-12-18T02:22:28.926Z,34.37
2022-12-18T02:25:31.076Z,33.43
2022-12-18T02:28:22.663Z,35.73
2022-12-18T02:31:15.781Z,35.87
2022-12-18T02:34:05.918Z,34.20
2022-12-18T02:36:56.595Z,33.50
2022-12-18T02:39:46.790Z,34.13
2022-12-18T02:42:35.288Z,35.63
2022-12-18T02:45:25.077Z,35.37
2022-12-18T02:48:13.631Z,34.90
2022-12-18T02:51:06.574Z,35.33
2022-12-18T02:54:00.831Z,32.83
2022-12-18T02:56:53.266Z,37.50
2022-12-18T02:59:44.277Z,35.53
2022-12-18T03:02:39.350Z,36.03
2022-12-18T03:05:33.638Z,35.93
2022-12-18T03:08:24.174Z,36.90
2022-12-18T03:11:14.942Z,36.60
2022-12-18T03:14:03.920Z,38.27
2022-12-18T03:16:55.461Z,38.90
2022-12-18T03:19:46.189Z,37.33
2022-12-18T03:22:35.541Z,35.50
2022-12-18T03:25:24.636Z,38.97
2022-12-18T03:28:16.510Z,35.30
2022-12-18T03:31:07.168Z,38.00
2022-12-18T03:33:57.308Z,35.33
2022-12-18T03:36:47.338Z,35.20
2022-12-18T03:39:36.357Z,34.70
2022-12-18T03:42:29.665Z,35.83
2022-12-18T03:45:23.326Z,30.77
2022-12-18T03:48:16.220Z,33.77
2022-12-18T03:51:08.398Z,32.93
2022-12-18T03:54:00.983Z,31.60
2022-12-18T03:56:55.433Z,33.73
2022-12-18T03:59:45.804Z,36.30
2022-12-18T04:02:34.938Z,33.37
2022-12-18T04:05:24.980Z,35.47
2022-12-18T04:08:14.258Z,35.13
2022-12-18T04:11:04.325Z,33.20
2022-12-18T04:13:57.564Z,33.90
2022-12-18T04:16:46.149Z,34.53
2022-12-18T04:19:34.728Z,32.80
2022-12-18T04:22:23.192Z,35.57
2022-12-18T04:25:14.367Z,36.30
2022-12-18T04:28:04.450Z,36.90
2022-12-18T04:30:53.187Z,36.73
2022-12-18T04:33:42.060Z,36.03
2022-12-18T04:36:30.900Z,37.67
2022-12-18T04:39:19.325Z,37.70
2022-12-18T04:42:07.770Z,34.00
2022-12-18T04:44:57.592Z,32.87
2022-12-18T04:47:46.014Z,33.10
2022-12-18T04:50:34.422Z,36.10
2022-12-18T04:53:22.894Z,35.67
2022-12-18T04:56:12.846Z,35.53
2022-12-18T04:59:01.340Z,34.17
2022-12-18T05:01:51.200Z,38.33
2022-12-18T05:04:39.737Z,36.63
2022-12-18T05:07:28.140Z,37.47
2022-12-18T05:10:16.650Z,38.33
2022-12-18T05:13:05.059Z,36.23
2022-12-18T05:15:53.976Z,36.00
2022-12-18T05:18:43.957Z,36.80
2022-12-18T05:21:32.393Z,36.70
2022-12-18T05:24:20.773Z,37.70
2022-12-18T05:27:09.364Z,37.17
2022-12-18T05:29:57.803Z,39.03
2022-12-18T05:32:46.272Z,34.33
2022-12-18T05:35:36.111Z,40.30
2022-12-18T05:38:25.671Z,34.83
2022-12-18T05:41:14.212Z,35.23
2022-12-18T05:44:02.700Z,37.97
2022-12-18T05:46:51.195Z,36.13
2022-12-18T05:49:39.668Z,36.07
2022-12-18T05:52:29.421Z,35.23
2022-12-18T05:55:17.922Z,33.40
2022-12-18T05:58:07.097Z,35.83
2022-12-18T06:00:55.601Z,34.17
2022-12-18T06:03:44.270Z,35.90
2022-12-18T06:06:33.196Z,34.60
2022-12-18T06:09:23.052Z,34.63
2022-12-18T06:12:11.816Z,37.77
2022-12-18T06:15:00.289Z,36.17
2022-12-18T06:17:48.745Z,36.07
2022-12-18T06:20:40.587Z,34.50
2022-12-18T06:23:29.265Z,34.87
2022-12-18T06:26:23.303Z,36.00
2022-12-18T06:29:14.644Z,36.23
2022-12-18T06:32:03.258Z,35.37
2022-12-18T06:34:51.731Z,36.20
2022-12-18T06:37:40.151Z,33.87
2022-12-18T06:40:28.618Z,35.50
2022-12-18T06:43:22.626Z,33.63
2022-12-18T06:46:11.798Z,31.10
2022-12-18T06:49:00.310Z,36.13
2022-12-18T06:51:49.200Z,35.17
2022-12-18T06:54:37.652Z,35.83
2022-12-18T06:57:26.110Z,33.40
2022-12-18T07:00:19.536Z,34.80
2022-12-18T07:03:08.086Z,33.37
2022-12-18T07:05:56.622Z,34.93
2022-12-18T07:08:45.323Z,32.97
2022-12-18T07:11:34.798Z,36.50
2022-12-18T07:14:23.182Z,35.73
2022-12-18T07:17:13.008Z,37.13
2022-12-18T07:20:01.792Z,36.03
2022-12-18T07:22:54.771Z,33.33
2022-12-18T07:25:44.692Z,33.40
2022-12-18T07:28:33.496Z,35.53
2022-12-18T07:31:23.148Z,37.20
2022-12-18T07:34:13.708Z,34.43
2022-12-18T07:37:02.304Z,34.93
2022-12-18T07:39:50.701Z,34.70
2022-12-18T07:42:40.153Z,35.47
2022-12-18T07:45:28.667Z,36.27
2022-12-18T07:48:17.213Z,34.63
2022-12-18T07:51:08.494Z,34.43
2022-12-18T07:53:56.963Z,35.30
2022-12-18T07:56:45.734Z,32.83
2022-12-18T07:59:34.208Z,34.90
2022-12-18T08:02:22.790Z,36.60
2022-12-18T08:05:11.376Z,37.57
2022-12-18T08:08:01.342Z,38.63
2022-12-18T08:10:49.785Z,36.80
2022-12-18T08:13:38.470Z,35.00
2022-12-18T08:16:27.463Z,35.90
2022-12-18T08:19:15.951Z,34.93
2022-12-18T08:22:04.682Z,38.50
2022-12-18T08:24:54.550Z,37.50
2022-12-18T08:27:43.021Z,37.03
2022-12-18T08:30:31.462Z,38.13
2022-12-18T08:33:20.135Z,40.10
2022-12-18T08:36:12.058Z,36.67
2022-12-18T08:39:00.490Z,35.87
2022-12-18T08:42:09.765Z,38.47
2022-12-18T08:44:58.671Z,39.80
2022-12-18T08:47:47.209Z,37.70
2022-12-18T08:50:35.993Z,37.73
2022-12-18T08:53:31.445Z,36.30
2022-12-18T08:56:22.633Z,37.60
2022-12-18T08:59:19.519Z,36.50
2022-12-18T09:02:12.976Z,35.33
2022-12-18T09:05:02.603Z,37.73
2022-12-18T09:07:51.944Z,36.97
2022-12-18T09:10:44.846Z,40.23
2022-12-18T09:13:34.582Z,37.43
2022-12-18T09:16:32.345Z,38.50
2022-12-18T09:19:26.037Z,35.03
2022-12-18T09:22:17.128Z,34.20
2022-12-18T09:25:08.953Z,36.33
2022-12-18T09:27:57.852Z,37.67
2022-12-18T09:30:49.001Z,33.60
2022-12-18T09:33:40.686Z,35.80
2022-12-18T09:36:33.199Z,38.23
2022-12-18T09:39:23.958Z,36.87
2022-12-18T09:42:20.213Z,33.27
2022-12-18T09:45:11.453Z,33.33
2022-12-18T09:48:00.101Z,33.43
2022-12-18T09:50:50.621Z,32.20
2022-12-18T09:53:40.334Z,34.57
2022-12-18T09:56:30.949Z,34.47
2022-12-18T09:59:24.943Z,33.47
2022-12-18T10:02:18.222Z,31.97
2022-12-18T10:05:09.014Z,35.87
2022-12-18T10:08:04.874Z,38.97
2022-12-18T10:10:55.170Z,39.23
2022-12-18T10:13:48.623Z,35.20
2022-12-18T10:16:44.563Z,36.20
2022-12-18T10:19:40.812Z,36.63
2022-12-18T10:22:43.301Z,36.80
2022-12-18T10:25:37.168Z,35.60
2022-12-18T10:28:25.684Z,39.10
2022-12-18T10:31:18.037Z,37.13
2022-12-18T10:34:07.726Z,38.10
2022-12-18T10:36:56.161Z,36.97
2022-12-18T10:39:44.652Z,34.47
2022-12-18T10:42:34.925Z,39.03
2022-12-18T10:45:23.395Z,37.90
2022-12-18T10:48:20.309Z,38.70
2022-12-18T10:51:12.393Z,35.40
2022-12-18T10:54:04.253Z,35.77
2022-12-18T10:57:18.754Z,37.97
2022-12-18T11:00:29.096Z,37.33
2022-12-18T11:03:33.889Z,37.60
2022-12-18T11:06:25.395Z,38.47
2022-12-18T11:09:23.086Z,36.80
2022-12-18T11:12:18.068Z,36.93
2022-12-18T11:15:07.432Z,37.93
2022-12-18T11:17:57.357Z,36.60
2022-12-18T11:20:58.172Z,35.40
2022-12-18T11:23:49.535Z,36.80
2022-12-18T11:26:38.080Z,32.20
2022-12-18T11:29:35.848Z,37.50
2022-12-18T11:32:35.208Z,35.20
2022-12-18T11:35:32.997Z,35.10
2022-12-18T11:38:25.098Z,34.93
2022-12-18T11:41:18.684Z,35.47
2022-12-18T11:44:09.238Z,35.03
2022-12-18T11:47:03.257Z,36.83
2022-12-18T11:49:52.448Z,36.37
2022-12-18T11:52:42.911Z,35.57
2022-12-18T11:55:39.655Z,36.30
2022-12-18T11:58:43.845Z,36.73
2022-12-18T12:01:44.425Z,35.70
2022-12-18T12:05:04.817Z,40.10
2022-12-18T12:08:01.614Z,36.30
2022-12-18T12:10:58.407Z,37.97
2022-12-18T12:13:59.226Z,38.87
2022-12-18T12:16:52.375Z,35.77
2022-12-18T12:19:48.157Z,37.93
2022-12-18T12:22:43.057Z,37.03
2022-12-18T12:25:40.524Z,38.10
2022-12-18T12:28:45.406Z,40.90
2022-12-18T12:31:49.527Z,37.27
2022-12-18T12:34:44.294Z,35.47
2022-12-18T12:37:38.919Z,40.53
2022-12-18T12:43:48.061Z,38.30
2022-12-18T12:46:41.596Z,39.10
2022-12-18T12:49:40.297Z,37.67
2022-12-18T12:52:33.427Z,37.57
2022-12-18T12:55:24.248Z,38.53
2022-12-18T12:58:19.101Z,38.97
2022-12-18T13:01:21.516Z,39.40
2022-12-18T13:04:21.550Z,36.07
2022-12-18T13:07:16.825Z,36.90
2022-12-18T13:10:26.934Z,39.57
2022-12-18T13:13:17.352Z,39.10
2022-12-18T13:16:13.516Z,38.93
2022-12-18T13:19:02.325Z,37.83
2022-12-18T13:21:55.334Z,38.33
2022-12-18T13:24:43.930Z,37.83
2022-12-18T13:27:57.168Z,39.30
2022-12-18T13:30:57.581Z,39.67
2022-12-18T13:37:00.511Z,40.57
2022-12-18T13:39:49.149Z,39.10
2022-12-18T13:42:58.617Z,37.63
2022-12-18T13:45:48.768Z,40.77
2022-12-18T13:48:39.428Z,39.93
2022-12-18T13:51:31.071Z,39.50
2022-12-18T13:54:22.215Z,37.27
2022-12-18T13:57:28.662Z,37.27
2022-12-18T14:00:28.747Z,37.83
2022-12-18T14:03:22.728Z,39.47
2022-12-18T14:06:13.857Z,37.50
2022-12-18T14:09:09.496Z,41.80
2022-12-18T14:12:19.317Z,40.00
2022-12-18T14:15:09.409Z,42.97
2022-12-18T14:18:00.962Z,42.63
2022-12-18T14:20:53.025Z,44.30
2022-12-18T14:23:44.162Z,40.20
2022-12-18T14:26:34.532Z,41.60
2022-12-18T14:29:27.089Z,41.03
2022-12-18T14:32:18.722Z,39.23
2022-12-18T14:35:15.355Z,43.30
2022-12-18T14:38:22.725Z,42.20
2022-12-18T14:41:14.392Z,42.60
2022-12-18T14:44:10.089Z,42.60
2022-12-18T14:46:58.609Z,41.20
2022-12-18T14:49:47.013Z,44.57
2022-12-18T14:52:35.521Z,43.17
2022-12-18T14:55:24.251Z,41.70
2022-12-18T14:58:16.131Z,42.03
2022-12-18T15:01:06.383Z,41.53
2022-12-18T15:03:55.659Z,41.13
2022-12-18T15:06:44.528Z,44.40
2022-12-18T15:09:34.320Z,41.13
2022-12-18T15:12:28.620Z,39.57
2022-12-18T15:15:48.314Z,42.30
2022-12-18T15:18:43.550Z,41.73
2022-12-18T15:21:32.617Z,42.20
2022-12-18T15:24:29.725Z,42.20
2022-12-18T15:27:34.382Z,43.27
2022-12-18T15:30:25.002Z,43.63
2022-12-18T15:33:25.647Z,42.03
2022-12-18T15:36:19.529Z,43.63
2022-12-18T15:39:15.165Z,40.57
2022-12-18T15:42:21.364Z,42.33
2022-12-18T15:45:13.578Z,40.50
2022-12-18T15:48:02.111Z,42.83
2022-12-18T15:50:51.721Z,40.70
2022-12-18T15:53:41.946Z,41.87
2022-12-18T15:56:48.051Z,44.37
2022-12-18T15:59:36.545Z,42.57
2022-12-18T16:02:25.379Z,44.93
2022-12-18T16:05:17.885Z,42.97
2022-12-18T16:08:06.455Z,43.03
2022-12-18T16:10:56.998Z,41.90
2022-12-18T16:13:45.611Z,44.87
2022-12-18T16:16:34.641Z,43.83
2022-12-18T16:19:23.458Z,44.93
2022-12-18T16:22:21.391Z,47.63
2022-12-18T16:25:13.910Z,49.47
2022-12-18T16:28:03.889Z,45.07
2022-12-18T16:30:52.530Z,49.07
2022-12-18T16:33:41.461Z,55.83
2022-12-18T16:36:30.172Z,48.40
2022-12-18T16:39:18.752Z,47.47
2022-12-18T16:42:10.770Z,47.30
2022-12-18T16:45:00.663Z,47.37
2022-12-18T16:47:50.260Z,49.90
2022-12-18T16:50:38.920Z,49.73
2022-12-18T16:53:27.597Z,48.60
2022-12-18T16:56:16.248Z,48.83
2022-12-18T16:59:05.583Z,49.30
2022-12-18T17:01:55.972Z,49.47
2022-12-18T17:04:45.013Z,47.37
2022-12-18T17:07:33.807Z,45.57
2022-12-18T17:10:24.192Z,46.70
2022-12-18T17:13:12.727Z,48.23
2022-12-18T17:16:04.887Z,48.77
2022-12-18T17:18:54.967Z,46.90
2022-12-18T17:21:43.569Z,48.80
2022-12-18T17:24:35.219Z,48.97
2022-12-18T17:27:24.035Z,50.00
2022-12-18T17:30:13.413Z,46.40
2022-12-18T17:33:01.950Z,46.33
2022-12-18T17:35:52.047Z,46.07
2022-12-18T17:38:41.004Z,45.83
2022-12-18T17:41:30.545Z,46.93
2022-12-18T17:44:19.583Z,47.93
2022-12-18T17:47:09.994Z,51.07
2022-12-18T17:49:58.498Z,51.40
2022-12-18T17:52:48.434Z,49.60
2022-12-18T17:55:36.935Z,48.47
2022-12-18T17:58:25.464Z,53.77
2022-12-18T18:01:15.461Z,51.03
2022-12-18T18:04:05.266Z,49.90
2022-12-18T18:06:53.793Z,48.17
2022-12-18T18:09:43.697Z,47.80
2022-12-18T18:12:50.499Z,47.40
2022-12-18T18:15:40.192Z,48.17
2022-12-18T18:18:28.654Z,48.03
2022-12-18T18:21:17.336Z,47.83
2022-12-18T18:24:06.854Z,48.90
2022-12-18T18:26:56.730Z,48.80
2022-12-18T18:29:45.596Z,49.50
2022-12-18T18:32:37.900Z,44.67
2022-12-18T18:35:52.992Z,45.90
2022-12-18T18:38:35.327Z,47.33
2022-12-18T18:41:24.664Z,45.93
2022-12-18T18:44:14.505Z,47.60
2022-12-18T18:47:05.602Z,49.67
2022-12-18T18:49:58.131Z,49.00
2022-12-18T18:52:46.751Z,49.33
2022-12-18T18:55:35.316Z,53.00
2022-12-18T18:58:24.017Z,50.97
2022-12-18T19:01:16.006Z,50.40
2022-12-18T19:04:05.196Z,48.90
2022-12-18T19:06:53.748Z,46.37
2022-12-18T19:09:43.817Z,48.17
2022-12-18T19:12:49.795Z,47.13
2022-12-18T19:15:38.310Z,46.83
2022-12-18T19:18:28.572Z,45.37
2022-12-18T19:21:17.068Z,49.80
2022-12-18T19:24:06.706Z,47.50
2022-12-18T19:26:57.942Z,49.50
2022-12-18T19:29:46.711Z,46.93
2022-12-18T19:32:35.575Z,47.27
2022-12-18T19:35:25.549Z,47.97
2022-12-18T19:38:14.373Z,49.23
2022-12-18T19:41:05.474Z,49.63
2022-12-18T19:43:54.315Z,48.47
2022-12-18T19:46:43.181Z,50.60
2022-12-18T19:49:32.665Z,50.50
2022-12-18T19:52:22.601Z,50.07
2022-12-18T19:55:11.141Z,49.70
2022-12-18T19:57:59.679Z,51.67
2022-12-18T20:00:48.259Z,52.20
2022-12-18T20:03:36.918Z,50.77
2022-12-18T20:06:27.027Z,48.40
2022-12-18T20:09:17.263Z,50.83
2022-12-18T20:12:06.737Z,48.87
2022-12-18T20:14:55.563Z,50.60
2022-12-18T20:17:44.096Z,50.27
2022-12-18T20:20:32.599Z,51.57
2022-12-18T20:23:21.952Z,49.27
2022-12-18T20:26:12.082Z,49.77
2022-12-18T20:29:00.820Z,49.07
2022-12-18T20:31:49.342Z,56.73
2022-12-18T20:34:38.027Z,56.83
2022-12-18T20:37:27.070Z,53.27
2022-12-18T20:40:15.762Z,52.30
2022-12-18T20:43:07.037Z,53.40
2022-12-18T20:46:01.711Z,49.90
2022-12-18T20:48:50.281Z,49.80
2022-12-18T20:51:39.011Z,52.03
2022-12-18T20:54:28.543Z,52.00
2022-12-18T20:57:17.105Z,54.97
2022-12-18T21:00:08.933Z,57.67
2022-12-18T21:02:58.808Z,54.50
2022-12-18T21:05:47.381Z,54.90
2022-12-18T21:08:35.964Z,68.07
2022-12-18T21:11:46.666Z,55.67
2022-12-18T21:14:35.267Z,52.20
2022-12-18T21:17:26.708Z,56.07
2022-12-18T21:20:17.404Z,55.20
2022-12-18T21:23:16.356Z,56.20
2022-12-18T21:26:16.990Z,55.33
2022-12-18T21:29:07.132Z,61.60
2022-12-18T21:31:56.190Z,55.40
2022-12-18T21:34:48.255Z,54.50
2022-12-18T21:37:37.069Z,53.23
2022-12-18T21:40:26.059Z,52.80
2022-12-18T21:43:32.014Z,52.53
2022-12-18T21:46:20.531Z,50.37
2022-12-18T21:49:10.575Z,48.60
2022-12-18T21:52:01.359Z,52.23
2022-12-18T21:54:50.042Z,51.23
2022-12-18T21:57:39.063Z,51.27
2022-12-18T22:00:27.541Z,53.10
2022-12-18T22:03:18.303Z,52.67
2022-12-18T22:06:09.820Z,48.60
2022-12-18T22:08:59.810Z,50.70
2022-12-18T22:11:48.912Z,49.13
2022-12-18T22:14:37.425Z,49.57
2022-12-18T22:17:25.895Z,49.90
2022-12-18T22:20:15.950Z,47.80
2022-12-18T22:23:06.178Z,50.73
2022-12-18T22:25:56.391Z,45.70
2022-12-18T22:29:02.154Z,48.23
2022-12-18T22:31:51.055Z,48.70
2022-12-18T22:34:39.680Z,49.53
2022-12-18T22:37:28.218Z,47.87
2022-12-18T22:40:23.953Z,45.57
2022-12-18T22:43:15.162Z,48.03
2022-12-18T22:46:03.772Z,44.87
2022-12-18T22:48:52.392Z,48.97
2022-12-18T22:51:41.073Z,51.60
2022-12-18T22:54:29.612Z,51.37
2022-12-18T22:57:18.051Z,48.47
2022-12-18T23:00:09.820Z,50.37
2022-12-18T23:03:00.989Z,49.10
2022-12-18T23:05:49.842Z,49.03
2022-12-18T23:08:39.958Z,50.00
2022-12-18T23:11:28.597Z,49.37
2022-12-18T23:14:17.295Z,51.10
2022-12-18T23:17:07.067Z,52.27
2022-12-18T23:19:55.480Z,47.47
2022-12-18T23:22:43.910Z,49.67
2022-12-18T23:25:32.444Z,51.10
2022-12-18T23:28:20.842Z,50.37
2022-12-18T23:31:13.211Z,49.97
2022-12-18T23:34:06.813Z,49.60
2022-12-18T23:36:56.237Z,48.40
2022-12-18T23:39:44.815Z,49.07
2022-12-18T23:42:33.282Z,48.87
2022-12-18T23:45:21.739Z,47.60
2022-12-18T23:48:10.195Z,44.47
2022-12-18T23:51:06.161Z,44.77
2022-12-18T23:53:55.170Z,46.03
2022-12-18T23:56:43.685Z,46.20
2022-12-18T23:59:32.220Z,46.63
